Time;durP1;ratioP1;P1;durP2;ratioP2;P2;SDS_P1;SDS_P2;PMS_P1;PMS_P2;Temp;Humidity;BMP_temperature;BMP_pressure;BME280_temperature;BME280_humidity;BME280_pressure;Samples;Min_cycle;Max_cycle;Signal;HPM_P1;HPM_P2
2023/06/12 00:01:22;;;;;;;;;;;17.30;93.50;;;;;;5062526;28;19929;-64
2023/06/12 00:03:49;;;;;;;;;;;17.30;93.90;;;;;;5080894;28;19931;-63
2023/06/12 00:06:21;;;;;;;;;;;17.30;94.00;;;;;;5081181;28;19925;-63
2023/06/12 00:08:52;;;;;;;;;;;17.20;94.30;;;;;;5067059;28;19924;-64
2023/06/12 00:11:25;;;;;;;;;;;17.20;94.60;;;;;;5078108;28;19935;-64
2023/06/12 00:13:52;;;;;;;;;;;17.10;95.10;;;;;;5066787;28;19931;-64
2023/06/12 00:16:24;;;;;;;;;;;17.00;95.20;;;;;;5061149;28;19939;-63
2023/06/12 00:18:55;;;;;;;;;;;17.00;95.40;;;;;;5061575;28;19925;-63
2023/06/12 00:21:27;;;;;;;;;;;16.90;95.80;;;;;;5060965;28;20376;-64
2023/06/12 00:24:00;;;;;;;;;;;16.80;96.40;;;;;;5062457;28;19931;-64
2023/06/12 00:26:31;;;;;;;;;;;16.70;96.90;;;;;;5065552;28;20015;-63
2023/06/12 00:29:03;;;;;;;;;;;16.60;97.40;;;;;;5062774;28;20473;-64
2023/06/12 00:31:35;;;;;;;;;;;16.50;97.90;;;;;;5059279;28;20584;-64
2023/06/12 00:34:06;;;;;;;;;;;16.50;98.20;;;;;;5065712;28;20399;-64
2023/06/12 00:36:34;;;;;;;;;;;16.40;98.60;;;;;;5081159;28;19924;-64
2023/06/12 00:39:06;;;;;;;;;;;16.40;99.20;;;;;;5078872;28;20440;-64
2023/06/12 00:41:39;;;;;;;;;;;16.40;99.50;;;;;;5058446;28;19932;-64
2023/06/12 00:44:11;;;;;;;;;;;16.40;99.90;;;;;;5058922;28;19931;-64
2023/06/12 00:46:38;;;;;;;;;;;16.30;99.90;;;;;;5050759;28;19982;-64
2023/06/12 00:49:11;;;;;;;;;;;16.30;99.90;;;;;;5077885;28;20388;-64
2023/06/12 00:51:43;;;;;;;;;;;16.30;99.90;;;;;;5076196;28;19967;-64
2023/06/12 00:54:10;;;;;;;;;;;16.30;99.90;;;;;;5077905;28;19924;-63
2023/06/12 00:56:42;;;;;;;;;;;16.30;99.90;;;;;;5078378;28;19932;-64
2023/06/12 00:59:09;;;;;;;;;;;16.20;99.90;;;;;;5078983;28;19925;-63
2023/06/12 01:01:42;;;;;;;;;;;16.20;99.90;;;;;;5061162;28;19924;-64
2023/06/12 01:04:13;;;;;;;;;;;16.20;99.90;;;;;;5077684;28;19956;-63
2023/06/12 01:07:10;;;;;;;;;;;16.20;99.90;;;;;;5072387;28;19929;-63
2023/06/12 01:09:49;;;;;;;;;;;16.10;99.90;;;;;;5049501;28;19928;-64
2023/06/12 01:12:22;;;;;;;;;;;16.10;99.90;;;;;;5061325;28;20426;-64
2023/06/12 01:14:54;;;;;;;;;;;16.00;99.90;;;;;;5056943;28;19936;-63
2023/06/12 01:17:27;;;;;;;;;;;16.00;99.90;;;;;;5060203;28;19924;-63
2023/06/12 01:20:11;;;;;;;;;;;16.00;99.90;;;;;;5075742;28;19929;-63
2023/06/12 01:22:46;;;;;;;;;;;15.90;99.90;;;;;;5058789;28;19964;-64
2023/06/12 01:25:26;;;;;;;;;;;15.90;99.90;;;;;;5065825;28;20019;-63
2023/06/12 01:28:16;;;;;;;;;;;15.80;99.90;;;;;;5059474;28;20032;-64
2023/06/12 01:30:54;;;;;;;;;;;15.80;99.90;;;;;;5055260;28;19925;-64
2023/06/12 01:33:30;;;;;;;;;;;15.80;99.90;;;;;;5075080;28;20430;-64
2023/06/12 01:36:03;;;;;;;;;;;15.80;99.90;;;;;;5055722;28;20020;-64
2023/06/12 01:38:35;;;;;;;;;;;15.80;99.90;;;;;;5076478;28;20027;-65
2023/06/12 01:41:09;;;;;;;;;;;15.80;99.90;;;;;;5072733;28;20360;-64
2023/06/12 01:43:42;;;;;;;;;;;15.80;99.90;;;;;;5074999;28;20384;-64
2023/06/12 01:46:14;;;;;;;;;;;15.80;99.90;;;;;;5082414;28;20326;-63
2023/06/12 01:48:46;;;;;;;;;;;15.70;99.90;;;;;;5061959;28;19937;-64
2023/06/12 01:51:12;;;;;;;;;;;15.70;99.90;;;;;;5063047;28;20293;-64
2023/06/12 01:53:44;;;;;;;;;;;15.70;99.90;;;;;;5060025;28;19925;-64
2023/06/12 01:56:17;;;;;;;;;;;15.70;99.90;;;;;;5075813;28;20344;-63
2023/06/12 01:58:44;;;;;;;;;;;15.60;99.90;;;;;;5072637;28;20406;-64
2023/06/12 02:01:29;;;;;;;;;;;15.60;99.90;;;;;;5081020;28;19925;-63
2023/06/12 02:04:02;;;;;;;;;;;15.60;99.90;;;;;;5059851;28;20019;-64
2023/06/12 02:06:34;;;;;;;;;;;15.60;99.90;;;;;;5060226;28;19960;-63
2023/06/12 02:09:06;;;;;;;;;;;15.50;99.90;;;;;;5082393;28;20037;-64
2023/06/12 02:11:39;;;;;;;;;;;15.50;99.90;;;;;;5076966;28;19928;-64
2023/06/12 02:14:11;;;;;;;;;;;15.30;99.90;;;;;;5063223;28;19925;-64
2023/06/12 02:16:45;;;;;;;;;;;15.30;99.90;;;;;;5076823;28;20382;-64
2023/06/12 02:19:17;;;;;;;;;;;15.30;99.90;;;;;;5075496;28;19964;-63
2023/06/12 02:21:44;;;;;;;;;;;15.20;99.90;;;;;;5072205;28;20019;-63
2023/06/12 02:24:16;;;;;;;;;;;15.20;99.90;;;;;;5055005;28;20114;-63
2023/06/12 02:26:47;;;;;;;;;;;15.20;99.90;;;;;;5059643;28;20281;-64
2023/06/12 02:29:20;;;;;;;;;;;15.10;99.90;;;;;;5087208;28;20014;-64
2023/06/12 02:31:54;;;;;;;;;;;15.10;99.90;;;;;;5078035;28;19964;-64
2023/06/12 02:34:26;;;;;;;;;;;15.10;99.90;;;;;;5083021;28;19932;-63
2023/06/12 02:36:58;;;;;;;;;;;15.10;99.90;;;;;;5062662;28;20396;-64
2023/06/12 02:39:30;;;;;;;;;;;15.10;99.90;;;;;;5058667;28;19925;-64
2023/06/12 02:42:03;;;;;;;;;;;15.00;99.90;;;;;;5076268;28;19925;-64
2023/06/12 02:44:36;;;;;;;;;;;15.00;99.90;;;;;;5074384;28;19929;-64
2023/06/12 02:47:08;;;;;;;;;;;15.00;99.90;;;;;;5078028;28;19924;-64
2023/06/12 02:49:44;;;;;;;;;;;15.00;99.90;;;;;;5069448;28;20408;-64
2023/06/12 02:52:22;;;;;;;;;;;15.10;99.90;;;;;;5069130;28;19932;-63
2023/06/12 02:54:49;;;;;;;;;;;15.10;99.90;;;;;;5084030;28;20304;-64
2023/06/12 02:57:21;;;;;;;;;;;15.10;99.90;;;;;;5083127;28;20023;-63
2023/06/12 02:59:52;;;;;;;;;;;15.10;99.90;;;;;;5063721;28;20134;-63
2023/06/12 03:02:31;;;;;;;;;;;15.00;99.90;;;;;;5077719;28;19924;-63
2023/06/12 03:05:04;;;;;;;;;;;15.00;99.90;;;;;;5061545;28;19932;-64
2023/06/12 03:07:36;;;;;;;;;;;15.00;99.90;;;;;;5067506;28;20415;-64
2023/06/12 03:10:03;;;;;;;;;;;15.00;99.90;;;;;;5065149;28;19968;-64
2023/06/12 03:12:35;;;;;;;;;;;15.00;99.90;;;;;;5059780;28;19935;-66
2023/06/12 03:15:07;;;;;;;;;;;15.00;99.90;;;;;;5077537;28;19929;-66
2023/06/12 03:17:39;;;;;;;;;;;14.90;99.90;;;;;;5062704;28;20426;-66
2023/06/12 03:20:06;;;;;;;;;;;14.90;99.90;;;;;;5079401;28;20002;-66
2023/06/12 03:22:38;;;;;;;;;;;14.90;99.90;;;;;;5063914;28;19928;-66
2023/06/12 03:25:10;;;;;;;;;;;14.90;99.90;;;;;;5081567;28;19924;-66
2023/06/12 03:27:42;;;;;;;;;;;14.90;99.90;;;;;;5080096;28;20364;-67
2023/06/12 03:30:14;;;;;;;;;;;14.90;99.90;;;;;;5068027;28;19935;-66
2023/06/12 03:32:46;;;;;;;;;;;14.90;99.90;;;;;;5064442;28;19925;-66
2023/06/12 03:35:18;;;;;;;;;;;14.90;99.90;;;;;;5065229;28;20630;-66
2023/06/12 03:37:50;;;;;;;;;;;14.80;99.90;;;;;;5059429;28;20308;-64
2023/06/12 03:40:22;;;;;;;;;;;14.80;99.90;;;;;;5078334;28;19926;-64
2023/06/12 03:42:49;;;;;;;;;;;14.80;99.90;;;;;;5064626;28;20024;-63
2023/06/12 03:45:21;;;;;;;;;;;14.80;99.90;;;;;;5063013;28;19925;-64
2023/06/12 03:47:54;;;;;;;;;;;14.80;99.90;;;;;;5078385;28;20592;-64
2023/06/12 03:50:26;;;;;;;;;;;14.70;99.90;;;;;;5064310;28;19986;-64
2023/06/12 03:52:58;;;;;;;;;;;14.70;99.90;;;;;;5080762;28;20621;-64
2023/06/12 03:55:32;;;;;;;;;;;14.70;99.90;;;;;;5079123;28;19925;-64
2023/06/12 03:58:03;;;;;;;;;;;14.70;99.90;;;;;;5076961;28;19924;-63
2023/06/12 04:00:35;;;;;;;;;;;14.90;99.90;;;;;;5058695;28;19928;-64
2023/06/12 04:03:08;;;;;;;;;;;15.10;99.90;;;;;;5079580;28;19931;-63
2023/06/12 04:05:40;;;;;;;;;;;15.20;99.90;;;;;;5061553;28;19967;-63
2023/06/12 04:08:12;;;;;;;;;;;15.20;99.90;;;;;;5076158;28;19929;-63
2023/06/12 04:10:44;;;;;;;;;;;15.20;99.90;;;;;;5049748;28;19924;-63
2023/06/12 04:13:16;;;;;;;;;;;15.20;99.90;;;;;;5066010;28;19979;-64
2023/06/12 04:15:42;;;;;;;;;;;15.20;99.90;;;;;;5081402;28;20303;-65
2023/06/12 04:18:14;;;;;;;;;;;15.10;99.90;;;;;;5062760;28;20419;-63
2023/06/12 04:20:46;;;;;;;;;;;15.20;99.90;;;;;;5062709;28;20024;-63
2023/06/12 04:23:18;;;;;;;;;;;15.20;99.90;;;;;;5060980;28;20897;-63
2023/06/12 04:25:50;;;;;;;;;;;15.20;99.90;;;;;;5079027;28;19939;-65
2023/06/12 04:28:22;;;;;;;;;;;15.20;99.90;;;;;;5077021;28;19932;-65
2023/06/12 04:30:54;;;;;;;;;;;15.20;99.90;;;;;;5073671;28;19925;-66
2023/06/12 04:33:30;;;;;;;;;;;15.30;99.90;;;;;;5078973;28;20320;-66
2023/06/12 04:36:02;;;;;;;;;;;15.30;99.90;;;;;;5078967;28;20027;-66
2023/06/12 04:38:36;;;;;;;;;;;15.30;99.90;;;;;;5078034;28;20388;-66
2023/06/12 04:41:09;;;;;;;;;;;15.30;99.90;;;;;;5056422;28;19975;-65
2023/06/12 04:43:43;;;;;;;;;;;15.40;99.90;;;;;;5061834;28;20033;-66
2023/06/12 04:46:18;;;;;;;;;;;15.40;99.90;;;;;;5064439;28;19925;-65
2023/06/12 04:48:50;;;;;;;;;;;15.50;99.90;;;;;;5084685;28;20399;-66
2023/06/12 04:51:25;;;;;;;;;;;15.50;99.90;;;;;;5056869;28;20015;-66
2023/06/12 04:53:57;;;;;;;;;;;15.60;99.90;;;;;;5069214;28;19929;-66
2023/06/12 04:56:31;;;;;;;;;;;15.60;99.90;;;;;;5072861;28;19925;-65
2023/06/12 04:59:03;;;;;;;;;;;15.70;99.90;;;;;;5072535;28;19979;-65
2023/06/12 05:01:35;;;;;;;;;;;15.70;99.90;;;;;;5067254;28;20413;-65
2023/06/12 05:04:07;;;;;;;;;;;15.80;99.90;;;;;;5064284;28;20024;-66
2023/06/12 05:06:39;;;;;;;;;;;15.90;99.90;;;;;;5066849;28;20342;-66
2023/06/12 05:09:13;;;;;;;;;;;15.90;99.90;;;;;;5061040;28;20023;-66
2023/06/12 05:11:41;;;;;;;;;;;15.90;99.90;;;;;;5059711;28;19924;-66
2023/06/12 05:14:13;;;;;;;;;;;15.90;99.90;;;;;;5074326;28;19983;-66
2023/06/12 05:16:46;;;;;;;;;;;16.00;99.90;;;;;;5078302;28;19931;-66
2023/06/12 05:19:13;;;;;;;;;;;16.00;99.90;;;;;;5070344;28;19929;-65
2023/06/12 05:21:45;;;;;;;;;;;16.10;99.90;;;;;;5070467;28;20020;-65
2023/06/12 05:24:17;;;;;;;;;;;16.10;99.90;;;;;;5058160;28;19939;-66
2023/06/12 05:26:50;;;;;;;;;;;16.10;99.90;;;;;;5085417;28;19935;-65
2023/06/12 05:29:22;;;;;;;;;;;16.20;99.90;;;;;;5067529;28;19929;-66
2023/06/12 05:31:53;;;;;;;;;;;16.20;99.90;;;;;;5064108;28;19935;-65
2023/06/12 05:34:25;;;;;;;;;;;16.30;99.90;;;;;;5064647;28;20303;-66
2023/06/12 05:36:57;;;;;;;;;;;16.40;99.90;;;;;;5077151;28;20411;-66
2023/06/12 05:39:26;;;;;;;;;;;16.40;99.90;;;;;;5075475;28;19928;-66
2023/06/12 05:41:59;;;;;;;;;;;16.50;99.90;;;;;;5073428;28;20027;-66
2023/06/12 05:44:25;;;;;;;;;;;16.50;99.90;;;;;;5080929;28;19925;-66
2023/06/12 05:46:52;;;;;;;;;;;16.60;99.90;;;;;;5076557;28;20031;-66
2023/06/12 05:49:25;;;;;;;;;;;16.60;99.90;;;;;;5086799;28;19935;-66
2023/06/12 05:51:58;;;;;;;;;;;16.70;99.90;;;;;;5067065;28;19928;-66
2023/06/12 05:54:30;;;;;;;;;;;16.80;99.90;;;;;;5084570;22;19939;-66
2023/06/12 05:57:02;;;;;;;;;;;16.90;99.90;;;;;;5065557;28;19935;-66
2023/06/12 05:59:34;;;;;;;;;;;17.00;99.90;;;;;;5070514;28;19924;-67
2023/06/12 06:02:07;;;;;;;;;;;17.10;99.90;;;;;;5071397;28;19932;-66
2023/06/12 06:04:40;;;;;;;;;;;17.10;99.90;;;;;;5065283;28;20384;-67
2023/06/12 06:07:12;;;;;;;;;;;17.20;99.90;;;;;;5060842;28;19932;-66
2023/06/12 06:09:45;;;;;;;;;;;17.30;99.90;;;;;;5081756;28;19925;-66
2023/06/12 06:12:12;;;;;;;;;;;17.30;99.90;;;;;;5071272;28;19928;-66
2023/06/12 06:14:45;;;;;;;;;;;17.40;99.90;;;;;;5067064;28;19930;-66
2023/06/12 06:17:17;;;;;;;;;;;17.50;99.90;;;;;;5070126;28;19924;-66
2023/06/12 06:19:50;;;;;;;;;;;17.50;99.90;;;;;;5055599;28;20028;-66
2023/06/12 06:22:24;;;;;;;;;;;17.60;99.90;;;;;;5049309;28;20026;-66
2023/06/12 06:24:55;;;;;;;;;;;17.60;99.90;;;;;;5071182;28;19932;-66
2023/06/12 06:27:24;;;;;;;;;;;17.70;99.90;;;;;;5070370;28;19929;-66
2023/06/12 06:29:50;;;;;;;;;;;17.70;99.90;;;;;;5071390;28;20378;-67
2023/06/12 06:32:22;;;;;;;;;;;17.90;99.90;;;;;;5070184;28;19933;-67
2023/06/12 06:34:54;;;;;;;;;;;18.00;99.90;;;;;;5069128;28;19925;-66
2023/06/12 06:37:26;;;;;;;;;;;18.00;99.90;;;;;;5066746;28;19950;-67
2023/06/12 06:39:53;;;;;;;;;;;18.20;99.90;;;;;;5070285;28;19974;-67
2023/06/12 06:42:27;;;;;;;;;;;18.20;99.90;;;;;;5064196;28;20035;-66
2023/06/12 06:45:05;;;;;;;;;;;18.30;99.90;;;;;;5081593;28;19925;-67
2023/06/12 06:47:36;;;;;;;;;;;18.40;99.90;;;;;;5081944;28;19924;-67
2023/06/12 06:50:09;;;;;;;;;;;18.40;99.90;;;;;;5068080;28;20378;-66
2023/06/12 06:52:41;;;;;;;;;;;18.50;99.90;;;;;;5046541;28;19960;-66
2023/06/12 06:55:14;;;;;;;;;;;18.60;99.90;;;;;;5076901;28;20036;-67
2023/06/12 06:57:50;;;;;;;;;;;18.70;99.90;;;;;;5062354;28;19931;-66
2023/06/12 07:00:22;;;;;;;;;;;18.80;99.90;;;;;;5069737;28;19959;-66
2023/06/12 07:02:54;;;;;;;;;;;18.90;99.90;;;;;;5072253;28;19928;-66
2023/06/12 07:05:29;;;;;;;;;;;19.00;99.90;;;;;;5065385;28;19932;-67
2023/06/12 07:08:01;;;;;;;;;;;19.10;99.90;;;;;;5079194;28;20018;-66
2023/06/12 07:10:35;;;;;;;;;;;19.30;99.90;;;;;;5084052;28;20423;-66
2023/06/12 07:13:13;;;;;;;;;;;19.30;99.90;;;;;;5067947;28;20299;-67
2023/06/12 07:15:51;;;;;;;;;;;19.40;99.90;;;;;;5065092;28;19935;-67
2023/06/12 07:18:23;;;;;;;;;;;19.50;99.90;;;;;;5055900;28;20015;-66
2023/06/12 07:20:50;;;;;;;;;;;19.60;99.90;;;;;;5069483;28;19928;-66
2023/06/12 07:23:22;;;;;;;;;;;19.70;99.90;;;;;;5068203;28;19925;-67
2023/06/12 07:25:54;;;;;;;;;;;19.80;99.90;;;;;;5068423;28;19929;-67
2023/06/12 07:28:26;;;;;;;;;;;19.90;99.90;;;;;;5061568;28;19932;-66
2023/06/12 07:30:58;;;;;;;;;;;20.10;99.90;;;;;;5068621;28;19970;-67
2023/06/12 07:33:30;;;;;;;;;;;20.10;99.90;;;;;;5062090;28;19932;-66
2023/06/12 07:35:57;;;;;;;;;;;20.20;99.90;;;;;;5069641;28;19971;-66
2023/06/12 07:38:29;;;;;;;;;;;20.30;99.90;;;;;;5079215;28;19957;-67
2023/06/12 07:41:01;;;;;;;;;;;20.30;99.90;;;;;;5064627;28;19979;-65
2023/06/12 07:43:34;;;;;;;;;;;20.40;99.90;;;;;;5077504;28;20540;-66
2023/06/12 07:46:06;;;;;;;;;;;20.50;99.90;;;;;;5052127;28;19936;-66
2023/06/12 07:48:32;;;;;;;;;;;20.60;99.90;;;;;;5056671;28;19924;-66
2023/06/12 07:51:04;;;;;;;;;;;20.70;99.90;;;;;;5067166;28;19924;-65
2023/06/12 07:53:36;;;;;;;;;;;20.80;99.90;;;;;;5069631;28;20406;-65
2023/06/12 07:56:16;;;;;;;;;;;20.90;99.90;;;;;;5067586;28;19928;-66
2023/06/12 07:58:51;;;;;;;;;;;21.00;99.90;;;;;;5066484;28;19974;-66
2023/06/12 08:01:18;;;;;;;;;;;21.10;99.90;;;;;;5067974;28;20379;-67
2023/06/12 08:03:50;;;;;;;;;;;21.20;99.90;;;;;;5068887;28;19932;-65
2023/06/12 08:06:24;;;;;;;;;;;21.20;99.90;;;;;;5068720;28;19929;-66
2023/06/12 08:08:56;;;;;;;;;;;21.30;99.90;;;;;;5061827;28;19932;-65
2023/06/12 08:11:28;;;;;;;;;;;21.40;99.90;;;;;;5068516;28;19986;-66
2023/06/12 08:14:00;;;;;;;;;;;21.50;99.90;;;;;;5057056;28;19925;-67
2023/06/12 08:16:34;;;;;;;;;;;21.60;99.90;;;;;;5069631;28;19928;-66
2023/06/12 08:19:06;;;;;;;;;;;21.70;99.90;;;;;;5068194;28;19929;-66
2023/06/12 08:21:37;;;;;;;;;;;21.90;99.90;;;;;;5069649;28;19928;-66
2023/06/12 08:24:11;;;;;;;;;;;22.00;99.90;;;;;;5068947;28;19924;-67
2023/06/12 08:26:43;;;;;;;;;;;22.10;99.90;;;;;;5063595;28;19932;-67
2023/06/12 08:29:16;;;;;;;;;;;22.20;99.90;;;;;;5067213;28;19928;-67
2023/06/12 08:31:47;;;;;;;;;;;22.30;99.90;;;;;;5047233;28;20469;-67
2023/06/12 08:34:20;;;;;;;;;;;22.30;99.00;;;;;;5065091;28;20040;-65
2023/06/12 08:36:53;;;;;;;;;;;22.30;99.00;;;;;;5057088;28;19932;-67
2023/06/12 08:39:26;;;;;;;;;;;22.40;99.60;;;;;;5059749;28;19924;-67
2023/06/12 08:41:53;;;;;;;;;;;22.50;99.80;;;;;;5071036;28;20007;-67
2023/06/12 08:44:25;;;;;;;;;;;22.60;98.80;;;;;;5077305;28;19925;-66
2023/06/12 08:46:59;;;;;;;;;;;22.70;97.10;;;;;;5064636;28;20583;-63
2023/06/12 08:49:32;;;;;;;;;;;22.80;96.90;;;;;;5067183;28;19932;-65
2023/06/12 08:52:00;;;;;;;;;;;22.80;96.80;;;;;;5060843;28;19956;-64
2023/06/12 08:54:43;;;;;;;;;;;22.90;95.90;;;;;;5061285;28;19925;-67
2023/06/12 08:57:14;;;;;;;;;;;23.00;96.00;;;;;;5057096;28;19979;-66
2023/06/12 08:59:46;;;;;;;;;;;23.00;95.00;;;;;;5058834;28;20397;-66
2023/06/12 09:02:18;;;;;;;;;;;23.10;93.90;;;;;;5066269;28;19929;-66
2023/06/12 09:04:59;;;;;;;;;;;23.20;93.30;;;;;;5053137;28;20328;-66
2023/06/12 09:07:35;;;;;;;;;;;23.20;92.80;;;;;;5067610;28;19932;-66
2023/06/12 09:10:07;;;;;;;;;;;23.30;93.30;;;;;;5065649;28;20023;-64
2023/06/12 09:12:43;;;;;;;;;;;23.30;93.10;;;;;;5063996;28;20444;-64
2023/06/12 09:15:18;;;;;;;;;;;23.40;93.10;;;;;;5061552;28;19950;-67
2023/06/12 09:17:51;;;;;;;;;;;23.50;92.00;;;;;;5060824;28;19925;-65
2023/06/12 09:20:26;;;;;;;;;;;23.60;92.90;;;;;;5056588;28;20269;-64
2023/06/12 09:23:00;;;;;;;;;;;23.70;92.10;;;;;;5054515;28;19935;-65
2023/06/12 09:25:43;;;;;;;;;;;23.70;91.90;;;;;;5067829;28;19932;-65
2023/06/12 09:28:15;;;;;;;;;;;23.80;91.90;;;;;;5058765;28;19932;-65
2023/06/12 09:30:49;;;;;;;;;;;23.90;91.40;;;;;;5059868;28;20030;-65
2023/06/12 09:33:25;;;;;;;;;;;24.00;91.60;;;;;;5063586;28;19924;-66
2023/06/12 09:35:58;;;;;;;;;;;24.00;91.20;;;;;;5061580;28;19928;-66
2023/06/12 09:38:35;;;;;;;;;;;24.00;91.50;;;;;;5064401;28;20299;-65
2023/06/12 09:41:08;;;;;;;;;;;24.10;91.20;;;;;;5061574;28;19951;-65
2023/06/12 09:43:35;;;;;;;;;;;24.20;90.80;;;;;;5069158;28;20293;-69
2023/06/12 09:46:08;;;;;;;;;;;24.20;90.30;;;;;;5065087;28;19924;-66
2023/06/12 09:48:38;;;;;;;;;;;24.30;89.90;;;;;;5067575;28;20288;-67
2023/06/12 09:51:10;;;;;;;;;;;24.40;88.50;;;;;;5065719;28;19931;-65
2023/06/12 09:53:44;;;;;;;;;;;24.50;88.70;;;;;;5061921;28;19982;-65
2023/06/12 09:56:17;;;;;;;;;;;24.60;88.10;;;;;;5059822;28;20448;-65
2023/06/12 09:58:50;;;;;;;;;;;24.60;88.90;;;;;;5061060;28;19925;-66
2023/06/12 10:01:25;;;;;;;;;;;24.60;88.10;;;;;;5062073;28;20016;-66
2023/06/12 10:03:58;;;;;;;;;;;24.70;89.20;;;;;;5064237;28;19928;-65
2023/06/12 10:06:31;;;;;;;;;;;24.90;87.60;;;;;;5059437;28;19924;-65
2023/06/12 10:09:02;;;;;;;;;;;25.00;86.80;;;;;;5061194;28;19925;-65
2023/06/12 10:11:30;;;;;;;;;;;25.10;86.50;;;;;;5070748;28;20612;-64
2023/06/12 10:14:02;;;;;;;;;;;25.10;85.20;;;;;;5050876;28;19933;-65
2023/06/12 10:16:35;;;;;;;;;;;25.20;84.80;;;;;;5067766;28;19929;-65
2023/06/12 10:19:07;;;;;;;;;;;25.20;81.80;;;;;;5064810;28;19928;-65
2023/06/12 10:21:40;;;;;;;;;;;25.30;81.90;;;;;;5067302;28;19932;-66
2023/06/12 10:24:11;;;;;;;;;;;25.30;79.20;;;;;;5064454;28;19925;-66
2023/06/12 10:26:43;;;;;;;;;;;25.30;80.00;;;;;;5054636;28;20587;-67
2023/06/12 10:29:32;;;;;;;;;;;25.40;79.50;;;;;;5064219;28;19981;-66
2023/06/12 10:32:04;;;;;;;;;;;25.50;79.00;;;;;;5066355;28;19928;-66
2023/06/12 10:34:41;;;;;;;;;;;25.60;77.70;;;;;;5071586;28;19935;-66
2023/06/12 10:37:22;;;;;;;;;;;25.60;78.20;;;;;;5065010;28;20416;-66
2023/06/12 10:40:00;;;;;;;;;;;25.70;80.30;;;;;;5064373;28;19924;-66
2023/06/12 10:42:48;;;;;;;;;;;25.80;80.50;;;;;;5063260;28;20315;-66
2023/06/12 10:45:20;;;;;;;;;;;25.70;79.10;;;;;;5067754;28;19971;-65
2023/06/12 10:48:04;;;;;;;;;;;25.70;80.30;;;;;;5064056;28;19924;-65
2023/06/12 10:50:44;;;;;;;;;;;25.80;79.40;;;;;;5065405;28;20024;-67
2023/06/12 10:53:29;;;;;;;;;;;25.90;79.10;;;;;;5064707;28;20376;-64
2023/06/12 10:56:03;;;;;;;;;;;26.10;81.40;;;;;;5068785;28;19932;-64
2023/06/12 10:58:36;;;;;;;;;;;26.20;80.20;;;;;;5066845;28;19924;-65
2023/06/12 11:01:10;;;;;;;;;;;26.10;80.70;;;;;;5064705;28;19931;-65
2023/06/12 11:03:42;;;;;;;;;;;26.10;80.10;;;;;;5060655;28;19929;-65
2023/06/12 11:06:15;;;;;;;;;;;26.10;80.80;;;;;;5063535;28;19986;-64
2023/06/12 11:08:47;;;;;;;;;;;26.30;80.00;;;;;;5061925;28;20292;-65
2023/06/12 11:11:19;;;;;;;;;;;26.40;78.90;;;;;;5070383;28;20742;-67
2023/06/12 11:13:51;;;;;;;;;;;26.50;79.00;;;;;;5064199;28;19931;-65
2023/06/12 11:16:26;;;;;;;;;;;26.60;78.40;;;;;;5066599;28;19929;-66
2023/06/12 11:19:05;;;;;;;;;;;26.50;77.10;;;;;;5064904;28;20023;-65
2023/06/12 11:21:38;;;;;;;;;;;26.40;77.30;;;;;;5063757;28;19938;-66
2023/06/12 11:24:12;;;;;;;;;;;26.30;76.80;;;;;;5062010;28;20400;-66
2023/06/12 11:26:48;;;;;;;;;;;26.40;76.90;;;;;;5060880;28;19935;-64
2023/06/12 11:29:22;;;;;;;;;;;26.40;77.10;;;;;;5063210;28;19932;-66
2023/06/12 11:32:01;;;;;;;;;;;26.20;77.50;;;;;;5055983;28;20015;-66
2023/06/12 11:34:36;;;;;;;;;;;26.10;77.00;;;;;;5060739;28;19975;-64
2023/06/12 11:37:18;;;;;;;;;;;26.00;76.40;;;;;;5068127;28;19986;-66
2023/06/12 11:40:10;;;;;;;;;;;26.10;77.40;;;;;;5070142;28;19947;-65
2023/06/12 11:42:43;;;;;;;;;;;26.40;77.30;;;;;;5067665;28;19925;-64
2023/06/12 11:45:15;;;;;;;;;;;26.20;74.90;;;;;;5064107;28;19968;-64
2023/06/12 11:47:48;;;;;;;;;;;26.20;74.30;;;;;;5064804;28;19955;-66
2023/06/12 11:50:22;;;;;;;;;;;26.40;75.50;;;;;;5063115;28;20331;-64
2023/06/12 11:52:55;;;;;;;;;;;26.70;75.30;;;;;;5057381;28;20033;-64
2023/06/12 11:55:26;;;;;;;;;;;26.80;73.20;;;;;;5056078;28;19929;-65
2023/06/12 11:58:00;;;;;;;;;;;27.00;73.20;;;;;;5053491;28;20438;-66
2023/06/12 12:00:33;;;;;;;;;;;27.10;72.30;;;;;;5070789;28;19932;-64
2023/06/12 12:03:09;;;;;;;;;;;27.00;72.10;;;;;;5059780;28;19956;-65
2023/06/12 12:05:41;;;;;;;;;;;26.80;72.60;;;;;;5066902;28;19946;-63
2023/06/12 12:08:14;;;;;;;;;;;26.80;73.40;;;;;;5062132;28;19931;-65
2023/06/12 12:10:47;;;;;;;;;;;26.80;73.60;;;;;;5064677;28;19925;-66
2023/06/12 12:13:19;;;;;;;;;;;27.00;71.10;;;;;;5061310;28;20419;-64
2023/06/12 12:15:51;;;;;;;;;;;27.10;70.10;;;;;;5064846;28;20032;-65
2023/06/12 12:18:25;;;;;;;;;;;27.10;68.90;;;;;;5060828;28;20594;-64
2023/06/12 12:20:56;;;;;;;;;;;27.20;67.60;;;;;;5062869;28;19925;-66
2023/06/12 12:23:28;;;;;;;;;;;27.30;67.00;;;;;;5059317;28;20007;-66
2023/06/12 12:26:00;;;;;;;;;;;27.60;66.40;;;;;;5065991;28;20042;-64
2023/06/12 12:28:32;;;;;;;;;;;27.80;65.30;;;;;;5067578;28;19935;-66
2023/06/12 12:31:04;;;;;;;;;;;27.70;64.40;;;;;;5067905;28;20408;-64
2023/06/12 12:33:36;;;;;;;;;;;27.70;65.30;;;;;;5064486;28;20045;-65
2023/06/12 12:36:08;;;;;;;;;;;27.80;65.40;;;;;;5065360;28;20299;-65
2023/06/12 12:38:39;;;;;;;;;;;27.90;65.30;;;;;;5066001;28;19929;-66
2023/06/12 12:41:11;;;;;;;;;;;28.10;66.50;;;;;;5061211;28;19925;-66
2023/06/12 12:43:43;;;;;;;;;;;28.30;65.90;;;;;;5062936;28;20391;-66
2023/06/12 12:46:15;;;;;;;;;;;28.40;63.20;;;;;;5062520;28;19978;-64
2023/06/12 12:48:47;;;;;;;;;;;28.50;63.20;;;;;;5067074;28;19935;-64
2023/06/12 12:51:18;;;;;;;;;;;28.60;62.50;;;;;;5065580;28;19925;-65
2023/06/12 12:53:50;;;;;;;;;;;28.70;62.10;;;;;;5065926;28;20528;-65
2023/06/12 12:56:22;;;;;;;;;;;28.70;62.60;;;;;;5067019;28;19986;-65
2023/06/12 12:58:54;;;;;;;;;;;28.80;60.70;;;;;;5067175;28;19925;-66
2023/06/12 13:01:26;;;;;;;;;;;28.90;61.40;;;;;;5062173;28;19928;-64
2023/06/12 13:03:58;;;;;;;;;;;28.90;61.60;;;;;;5067088;28;19924;-65
2023/06/12 13:06:29;;;;;;;;;;;29.00;61.40;;;;;;5064296;28;19924;-65
2023/06/12 13:08:56;;;;;;;;;;;28.90;58.60;;;;;;5067022;28;19928;-65
2023/06/12 13:11:28;;;;;;;;;;;28.90;59.70;;;;;;5059927;28;20388;-66
2023/06/12 13:13:59;;;;;;;;;;;28.80;59.00;;;;;;5063443;28;19928;-66
2023/06/12 13:16:31;;;;;;;;;;;29.00;58.30;;;;;;5067140;28;20017;-65
2023/06/12 13:19:03;;;;;;;;;;;29.00;58.30;;;;;;5062736;28;19924;-65
2023/06/12 13:21:35;;;;;;;;;;;29.20;58.50;;;;;;5065857;28;19932;-65
2023/06/12 13:24:07;;;;;;;;;;;29.30;58.50;;;;;;5065130;28;19935;-65
2023/06/12 13:26:39;;;;;;;;;;;29.40;60.10;;;;;;5066046;28;19924;-66
2023/06/12 13:29:11;;;;;;;;;;;29.50;57.70;;;;;;5066492;28;19924;-66
2023/06/12 13:31:42;;;;;;;;;;;29.50;57.90;;;;;;5065451;28;20043;-65
2023/06/12 13:34:15;;;;;;;;;;;29.30;57.20;;;;;;5065183;28;19939;-65
2023/06/12 13:36:46;;;;;;;;;;;29.40;57.60;;;;;;5049761;28;19929;-66
2023/06/12 13:39:18;;;;;;;;;;;29.70;57.20;;;;;;5063053;28;19936;-66
2023/06/12 13:41:52;;;;;;;;;;;30.00;56.30;;;;;;5065062;28;20510;-66
2023/06/12 13:44:23;;;;;;;;;;;30.10;55.40;;;;;;5064967;28;19928;-66
2023/06/12 13:46:56;;;;;;;;;;;30.30;54.20;;;;;;5067887;28;20404;-66
2023/06/12 13:49:27;;;;;;;;;;;30.30;53.70;;;;;;5065791;28;20348;-66
2023/06/12 13:51:59;;;;;;;;;;;30.30;53.40;;;;;;5064657;28;19929;-66
2023/06/12 13:54:31;;;;;;;;;;;30.40;53.00;;;;;;5068741;28;19931;-66
2023/06/12 13:57:03;;;;;;;;;;;30.60;53.20;;;;;;5069936;28;20023;-66
2023/06/12 13:59:35;;;;;;;;;;;30.70;53.70;;;;;;5068794;28;20007;-65
2023/06/12 14:02:02;;;;;;;;;;;30.70;52.70;;;;;;5067567;28;19932;-66
2023/06/12 14:04:34;;;;;;;;;;;30.70;52.60;;;;;;5066915;28;20045;-65
2023/06/12 14:07:06;;;;;;;;;;;30.90;52.00;;;;;;5071612;28;19931;-67
2023/06/12 14:09:33;;;;;;;;;;;30.90;51.30;;;;;;5068139;28;19932;-66
2023/06/12 14:12:06;;;;;;;;;;;31.00;51.60;;;;;;5064930;28;19932;-65
2023/06/12 14:14:38;;;;;;;;;;;30.90;51.40;;;;;;5068750;28;19928;-66
2023/06/12 14:17:10;;;;;;;;;;;31.00;52.10;;;;;;5069823;28;20018;-66
2023/06/12 14:19:42;;;;;;;;;;;31.00;52.00;;;;;;5069855;28;19936;-66
2023/06/12 14:22:14;;;;;;;;;;;31.00;50.90;;;;;;5064285;28;20324;-66
2023/06/12 14:24:40;;;;;;;;;;;31.10;50.70;;;;;;5066741;28;19928;-66
2023/06/12 14:27:07;;;;;;;;;;;31.00;51.30;;;;;;5067840;28;20039;-66
2023/06/12 14:29:34;;;;;;;;;;;31.00;51.30;;;;;;5063818;28;19932;-66
2023/06/12 14:32:08;;;;;;;;;;;31.20;51.70;;;;;;5065929;28;19924;-66
2023/06/12 14:34:39;;;;;;;;;;;31.30;50.30;;;;;;5066930;28;19928;-66
2023/06/12 14:37:11;;;;;;;;;;;31.60;51.20;;;;;;5067116;28;19939;-66
2023/06/12 14:39:43;;;;;;;;;;;31.70;48.50;;;;;;5067988;28;19928;-65
2023/06/12 14:42:15;;;;;;;;;;;31.90;48.60;;;;;;5067527;28;19924;-65
2023/06/12 14:44:47;;;;;;;;;;;32.00;47.30;;;;;;5089585;22;19930;-65
2023/06/12 14:47:19;;;;;;;;;;;31.90;45.00;;;;;;5068688;28;19932;-64